North Oxford, Massachusetts
Current Conditions -  °F | °C
As of 10:54 AM on Sunday 23 Nov 2014 (Local Time) from KORH Reporting Station
Clear Clear  
Wind Chill: 44°   Ceiling: Unl
Heat Index: 49°   Visibility: 10mi
Dew Point: 30°   Wind: 12mph
Humidity: 48%   Direction: 250°WSW
Pressure: 30.13"   Gusts: NA
Location:  42.15°N, 71.87°W
Report Text: KORH 231554Z 25010KT 10SM CLR 09/M01 A3013 RMK AO2 SLP210 T00941011 $
Loading
Personal Weather Stations






























Interactive Weather Map New forecast layout! Learn more

10-Day Weather Forecast

Advertisements
Track Severe Weather on mobile